Time;durP1;ratioP1;P1;durP2;ratioP2;P2;SDS_P1;SDS_P2;PMS_P1;PMS_P2;Temp;Humidity;BMP_temperature;BMP_pressure;BME280_temperature;BME280_humidity;BME280_pressure;Samples;Min_cycle;Max_cycle;Signal;HPM_P1;HPM_P2
2021/12/27 00:00:18;;;;;;;47.25;24.70;;;;;;;2.46;100.00;100176.97;5023811;28;20100;-66
2021/12/27 00:02:43;;;;;;;45.97;25.70;;;;;;;2.47;100.00;100172.41;5024607;28;20106;-65
2021/12/27 00:05:09;;;;;;;44.58;26.10;;;;;;;2.47;100.00;100170.53;5024126;28;20029;-66
2021/12/27 00:07:34;;;;;;;45.53;26.58;;;;;;;2.48;100.00;100171.34;5023637;28;20041;-65
2021/12/27 00:10:00;;;;;;;47.85;26.48;;;;;;;2.48;100.00;100166.78;5025055;28;20021;-65
2021/12/27 00:12:26;;;;;;;50.13;26.33;;;;;;;2.49;100.00;100168.47;5024052;28;20473;-65
2021/12/27 00:14:51;;;;;;;47.25;27.77;;;;;;;2.52;100.00;100170.78;5023386;28;20045;-65
2021/12/27 00:17:17;;;;;;;51.30;26.77;;;;;;;2.50;100.00;100170.16;5024580;28;20068;-65
2021/12/27 00:19:42;;;;;;;48.53;27.05;;;;;;;2.52;100.00;100164.53;5023630;28;20445;-65
2021/12/27 00:22:07;;;;;;;49.30;28.58;;;;;;;2.56;100.00;100168.53;5024427;28;20117;-65
2021/12/27 00:24:32;;;;;;;53.17;27.88;;;;;;;2.53;100.00;100160.78;5023651;28;20029;-66
2021/12/27 00:26:58;;;;;;;55.22;28.77;;;;;;;2.54;100.00;100171.44;5024269;28;20103;-66
2021/12/27 00:29:23;;;;;;;53.92;29.40;;;;;;;2.54;100.00;100154.34;5023382;28;20155;-65
2021/12/27 00:31:48;;;;;;;48.70;27.63;;;;;;;2.56;100.00;100157.69;5022832;28;20041;-66
2021/12/27 00:34:14;;;;;;;53.45;28.98;;;;;;;2.55;100.00;100162.28;5022978;28;20018;-65
2021/12/27 00:36:39;;;;;;;50.53;27.00;;;;;;;2.57;100.00;100156.63;5023325;28;20037;-65
2021/12/27 00:39:05;;;;;;;52.20;26.85;;;;;;;2.57;100.00;100159.34;5023302;28;20029;-66
2021/12/27 00:41:31;;;;;;;51.65;28.25;;;;;;;2.57;100.00;100154.75;5024369;28;20427;-65
2021/12/27 00:43:56;;;;;;;51.20;27.27;;;;;;;2.60;100.00;100150.84;5024135;28;20044;-65
2021/12/27 00:46:21;;;;;;;51.83;27.95;;;;;;;2.60;100.00;100140.84;5022851;28;20443;-65
2021/12/27 00:48:46;;;;;;;50.55;27.88;;;;;;;2.61;100.00;100141.66;5024028;28;20037;-65
2021/12/27 00:51:12;;;;;;;52.90;27.73;;;;;;;2.61;100.00;100141.66;5022422;28;20112;-65
2021/12/27 00:53:37;;;;;;;50.20;26.67;;;;;;;2.62;100.00;100134.38;5019235;28;20026;-65
2021/12/27 00:56:02;;;;;;;48.97;28.00;;;;;;;2.61;100.00;100133.53;5023023;28;20064;-65
2021/12/27 00:58:28;;;;;;;50.22;27.00;;;;;;;2.63;100.00;100126.03;5024267;28;20029;-65
2021/12/27 01:00:53;;;;;;;48.22;27.30;;;;;;;2.65;100.00;100115.00;5022520;28;20029;-66
2021/12/27 01:03:20;;;;;;;48.65;26.60;;;;;;;2.65;100.00;100117.72;5022804;28;20036;-65
2021/12/27 01:05:46;;;;;;;46.83;26.35;;;;;;;2.66;100.00;100114.81;5024054;28;20446;-65
2021/12/27 01:08:11;;;;;;;51.90;27.42;;;;;;;2.67;100.00;100115.63;5023421;28;20056;-65
2021/12/27 01:13:36;;;;;;;48.13;26.80;;;;;;;2.69;100.00;100114.44;5022917;28;20068;-65
2021/12/27 01:18:34;;;;;;;48.17;26.15;;;;;;;2.71;100.00;100117.75;5024024;28;20030;-65
2021/12/27 01:20:59;;;;;;;49.20;27.50;;;;;;;2.74;100.00;100122.81;5023175;28;20029;-65
2021/12/27 01:23:25;;;;;;;47.22;26.60;;;;;;;2.74;100.00;100116.53;5023540;28;20041;-65
2021/12/27 01:25:50;;;;;;;49.97;26.77;;;;;;;2.74;100.00;100113.84;5022906;28;20025;-65
2021/12/27 01:28:18;;;;;;;47.80;26.73;;;;;;;2.76;100.00;100118.00;5022873;28;20033;-65
2021/12/27 01:30:46;;;;;;;47.53;26.37;;;;;;;2.76;100.00;100120.72;5024690;28;20022;-65
2021/12/27 01:33:12;;;;;;;45.67;25.88;;;;;;;2.78;100.00;100120.50;5026806;28;20033;-65
2021/12/27 01:35:38;;;;;;;46.15;24.98;;;;;;;2.79;100.00;100103.22;5026595;28;20032;-65
2021/12/27 01:38:03;;;;;;;47.65;26.88;;;;;;;2.80;100.00;100099.47;5026612;28;20253;-65
2021/12/27 01:40:29;;;;;;;49.58;26.55;;;;;;;2.81;100.00;100099.28;5027137;28;20037;-65
2021/12/27 01:43:07;;;;;;;50.67;27.25;;;;;;;2.81;100.00;100106.56;5027047;28;20154;-65
2021/12/27 01:45:35;;;;;;;46.53;25.48;;;;;;;2.83;100.00;100101.78;5026592;28;20074;-65
2021/12/27 01:48:00;;;;;;;;;;;;;;;2.85;100.00;100097.84;5027683;28;20052;-66
2021/12/27 01:50:26;;;;;;;43.92;23.88;;;;;;;2.84;100.00;100093.47;5025849;28;19917;-65
2021/12/27 01:52:51;;;;;;;42.97;23.30;;;;;;;2.88;100.00;100101.19;5026638;28;20373;-65
2021/12/27 01:55:16;;;;;;;44.50;24.90;;;;;;;2.86;100.00;100096.81;5026183;28;20380;-66
2021/12/27 01:57:42;;;;;;;46.90;25.13;;;;;;;2.89;100.00;100103.72;5026320;28;20041;-66
2021/12/27 02:00:08;;;;;;;47.45;24.52;;;;;;;2.90;100.00;100105.38;5025866;28;20036;-66
2021/12/27 02:02:33;;;;;;;47.05;26.33;;;;;;;2.92;100.00;100099.75;5026367;28;20091;-65
2021/12/27 02:04:59;;;;;;;47.92;27.50;;;;;;;2.90;100.00;100102.66;5027012;28;20122;-66
2021/12/27 02:07:24;;;;;;;48.65;25.10;;;;;;;2.92;100.00;100105.19;5026015;28;20148;-65
2021/12/27 02:10:01;;;;;;;47.78;26.40;;;;;;;2.94;100.00;100097.66;5026377;28;20073;-66
2021/12/27 02:12:26;;;;;;;45.63;25.33;;;;;;;2.94;100.00;100101.25;5026496;28;20025;-65
2021/12/27 02:14:52;;;;;;;44.78;24.58;;;;;;;2.95;100.00;100091.22;5024982;28;20037;-65
2021/12/27 02:17:18;;;;;;;44.42;23.92;;;;;;;2.94;100.00;100084.97;5026349;28;20041;-66
2021/12/27 02:19:48;;;;;;;44.15;24.38;;;;;;;2.96;100.00;100090.19;5026160;28;20366;-66
2021/12/27 02:22:13;;;;;;;44.78;25.13;;;;;;;2.96;100.00;100087.47;5025250;28;20022;-66
2021/12/27 02:24:40;;;;;;;42.60;23.52;;;;;;;2.96;100.00;100087.47;5026581;28;20061;-66
2021/12/27 02:27:06;;;;;;;44.20;25.52;;;;;;;2.99;100.00;100093.34;5025351;28;20033;-66
2021/12/27 02:29:31;;;;;;;46.78;24.13;;;;;;;2.99;100.00;100087.06;5025565;28;20767;-65
2021/12/27 02:31:56;;;;;;;42.97;24.27;;;;;;;2.98;100.00;100079.97;5026142;28;20028;-65
2021/12/27 02:34:21;;;;;;;43.10;23.83;;;;;;;3.00;100.00;100081.44;5025570;28;20036;-66
2021/12/27 02:36:48;;;;;;;43.63;24.02;;;;;;;3.00;100.00;100084.16;5025234;28;20029;-65
2021/12/27 02:39:13;;;;;;;42.88;25.05;;;;;;;3.01;100.00;100080.41;5025589;28;20021;-66
2021/12/27 02:41:39;;;;;;;45.45;25.23;;;;;;;3.05;100.00;100087.13;5024536;28;20139;-66
2021/12/27 02:44:04;;;;;;;43.33;25.13;;;;;;;3.03;100.00;100085.63;5025307;28;20571;-65
2021/12/27 02:46:29;;;;;;;44.80;24.73;;;;;;;3.06;100.00;100082.53;5024602;28;20110;-66
2021/12/27 02:48:55;;;;;;;46.63;25.60;;;;;;;3.05;100.00;100072.72;5025463;28;20345;-66
2021/12/27 02:51:20;;;;;;;45.53;23.48;;;;;;;3.05;100.00;100070.84;5024943;28;20127;-65
2021/12/27 02:53:47;;;;;;;46.75;25.67;;;;;;;3.08;100.00;100078.56;5020232;28;20063;-65
2021/12/27 02:56:13;;;;;;;45.85;25.40;;;;;;;3.09;100.00;100082.97;5024811;28;20042;-65
2021/12/27 02:58:38;;;;;;;46.72;25.10;;;;;;;3.08;100.00;100069.56;5025202;28;20400;-66
2021/12/27 03:01:08;;;;;;;46.13;24.80;;;;;;;3.11;100.00;100064.59;5024717;28;20018;-65
2021/12/27 03:03:33;;;;;;;42.15;23.70;;;;;;;3.12;100.00;100070.84;5025973;28;20025;-66
2021/12/27 03:05:59;;;;;;;44.28;25.15;;;;;;;3.15;100.00;100067.75;5025967;28;20594;-65
2021/12/27 03:08:26;;;;;;;43.35;24.33;;;;;;;3.13;100.00;100064.38;5024626;28;20091;-65
2021/12/27 03:10:54;;;;;;;42.65;24.50;;;;;;;3.15;100.00;100053.34;5025432;28;20041;-65
2021/12/27 03:13:24;;;;;;;41.97;24.58;;;;;;;3.16;100.00;100052.31;5025218;28;20175;-65
2021/12/27 03:15:54;;;;;;;47.15;25.77;;;;;;;3.18;100.00;100053.78;5024428;28;20128;-65
2021/12/27 03:18:20;;;;;;;48.28;24.40;;;;;;;3.19;100.00;100049.19;5024635;28;20704;-65
2021/12/27 03:20:45;;;;;;;44.78;24.42;;;;;;;3.20;100.00;100049.00;5025011;28;20025;-65
2021/12/27 03:23:11;;;;;;;43.00;23.60;;;;;;;3.21;100.00;100047.13;5024897;28;20108;-65
2021/12/27 03:25:36;;;;;;;44.50;24.85;;;;;;;3.24;100.00;100052.13;5024917;28;20060;-65
2021/12/27 03:28:02;;;;;;;47.22;26.00;;;;;;;3.23;100.00;100047.75;5024490;28;20040;-65
2021/12/27 03:30:27;;;;;;;49.10;24.98;;;;;;;3.25;100.00;100048.38;5024586;28;20116;-65
2021/12/27 03:32:53;;;;;;;43.38;25.38;;;;;;;3.29;100.00;100052.34;5024842;28;20025;-65
2021/12/27 03:35:25;;;;;;;46.13;25.65;;;;;;;3.30;100.00;100056.75;5024305;28;20112;-66
2021/12/27 03:37:54;;;;;;;49.42;24.55;;;;;;;3.28;100.00;100047.97;5024660;28;20036;-66
2021/12/27 03:40:20;;;;;;;44.90;23.88;;;;;;;3.33;100.00;100046.31;5024326;28;20108;-66
2021/12/27 03:42:50;;;;;;;45.10;24.20;;;;;;;3.33;100.00;100050.91;5024325;28;20025;-66
2021/12/27 03:45:18;;;;;;;44.08;25.13;;;;;;;3.34;100.00;100042.56;5023746;28;20083;-65
2021/12/27 03:47:44;;;;;;;;;;;;;;;3.37;100.00;100044.88;5024491;28;20034;-66
2021/12/27 03:50:09;;;;;;;43.85;24.00;;;;;;;3.36;100.00;100035.06;5024243;28;19924;-65
2021/12/27 03:52:34;;;;;;;44.35;24.15;;;;;;;3.37;100.00;100047.59;5024263;28;20030;-65
2021/12/27 03:55:00;;;;;;;46.10;23.98;;;;;;;3.38;100.00;100040.28;5025253;28;20083;-66
2021/12/27 03:57:26;;;;;;;46.17;24.73;;;;;;;3.39;100.00;100033.81;5023563;28;20033;-66
2021/12/27 04:00:15;;;;;;;48.35;26.02;;;;;;;3.40;100.00;100024.66;5022899;28;20088;-65
2021/12/27 04:02:37;;;;;;;43.80;24.05;;;;;;;3.43;100.00;100026.94;5024293;28;20484;-66
2021/12/27 04:05:04;;;;;;;45.20;24.83;;;;;;;3.45;100.00;100015.84;5024047;28;20029;-65
2021/12/27 04:07:34;;;;;;;45.72;24.50;;;;;;;3.47;100.00;100019.22;5023946;28;20025;-65
2021/12/27 04:09:59;;;;;;;47.15;25.23;;;;;;;3.47;100.00;100011.91;5024409;28;20056;-65
2021/12/27 04:12:24;;;;;;;46.30;25.00;;;;;;;3.48;100.00;100013.59;5023390;28;20025;-65
2021/12/27 04:14:49;;;;;;;46.45;25.33;;;;;;;3.50;100.00;100005.25;5023658;28;20099;-65
2021/12/27 04:17:15;;;;;;;47.72;23.75;;;;;;;3.52;100.00;100011.31;5022848;28;20120;-65
2021/12/27 04:19:40;;;;;;;46.65;24.30;;;;;;;3.53;100.00;100016.50;5024249;28;20030;-65
2021/12/27 04:22:05;;;;;;;45.95;25.52;;;;;;;3.54;100.00;100001.91;5023847;28;20039;-65
2021/12/27 04:24:30;;;;;;;45.53;24.88;;;;;;;3.55;100.00;100003.59;5024508;28;20068;-66
2021/12/27 04:26:56;;;;;;;43.90;24.90;;;;;;;3.56;100.00;99994.41;5022712;28;20496;-65
2021/12/27 04:29:21;;;;;;;42.55;23.05;;;;;;;3.56;100.00;99988.97;5023015;28;20042;-65
2021/12/27 04:31:46;;;;;;;42.25;23.17;;;;;;;3.58;100.00;99992.31;5024173;28;20053;-65
2021/12/27 04:34:12;;;;;;;43.83;24.52;;;;;;;3.58;100.00;99992.31;5023208;28;20439;-65
2021/12/27 04:36:37;;;;;;;50.17;26.38;;;;;;;3.57;100.00;99990.63;5023442;28;20033;-65
2021/12/27 04:39:03;;;;;;;47.95;25.77;;;;;;;3.58;100.00;99984.16;5022685;28;20057;-65
2021/12/27 04:41:29;;;;;;;47.85;24.38;;;;;;;3.60;100.00;99982.09;5023533;28;20025;-65
2021/12/27 04:43:54;;;;;;;46.05;24.40;;;;;;;3.60;100.00;99986.69;5023594;28;20079;-65
2021/12/27 04:46:19;;;;;;;49.30;25.52;;;;;;;3.62;100.00;99984.59;5022165;28;20112;-65
2021/12/27 04:48:45;;;;;;;44.05;24.63;;;;;;;3.61;100.00;99989.19;5023102;28;20032;-66
2021/12/27 04:51:10;;;;;;;41.97;24.05;;;;;;;3.62;100.00;99977.28;5022976;28;20040;-65
2021/12/27 04:53:36;;;;;;;46.88;25.25;;;;;;;3.63;100.00;99984.38;5017088;28;20042;-65
2021/12/27 04:56:02;;;;;;;46.22;25.10;;;;;;;3.64;100.00;99977.91;5023261;28;20076;-65
2021/12/27 04:58:27;;;;;;;46.53;23.70;;;;;;;3.65;100.00;99973.31;5024009;28;20033;-66
2021/12/27 05:00:53;;;;;;;44.92;24.75;;;;;;;3.66;100.00;99975.00;5022100;28;20777;-66
2021/12/27 05:03:18;;;;;;;45.95;25.10;;;;;;;3.66;100.00;99979.59;5023328;28;20022;-65
2021/12/27 05:05:46;;;;;;;45.47;25.30;;;;;;;3.67;100.00;99983.97;5025014;28;20028;-66
2021/12/27 05:08:12;;;;;;;45.47;25.17;;;;;;;3.67;100.00;99978.53;5027503;28;20029;-66
2021/12/27 05:10:37;;;;;;;42.47;23.30;;;;;;;3.70;100.00;99987.13;5027110;28;20095;-66
2021/12/27 05:13:03;;;;;;;45.45;24.52;;;;;;;3.70;100.00;99978.09;5026289;28;20376;-66
2021/12/27 05:15:29;;;;;;;45.55;24.90;;;;;;;3.73;100.00;99980.41;5027303;28;20060;-66
2021/12/27 05:17:54;;;;;;;44.72;24.13;;;;;;;3.71;100.00;99977.09;5026605;28;20064;-66
2021/12/27 05:20:19;;;;;;;44.55;24.42;;;;;;;3.74;100.00;99971.22;5026525;28;20061;-65
2021/12/27 05:22:44;;;;;;;45.35;25.02;;;;;;;3.74;100.00;99965.78;5027983;28;20025;-65
2021/12/27 05:25:11;;;;;;;45.20;24.45;;;;;;;3.73;100.00;99964.97;5027391;28;20080;-65
2021/12/27 05:27:40;;;;;;;46.22;25.58;;;;;;;3.74;100.00;99960.34;5026969;28;20118;-65
2021/12/27 05:30:06;;;;;;;42.63;23.92;;;;;;;3.76;100.00;99963.72;5026320;28;20024;-65
2021/12/27 05:32:32;;;;;;;48.03;25.13;;;;;;;3.77;100.00;99959.97;5027245;28;20034;-65
2021/12/27 05:34:58;;;;;;;41.20;23.45;;;;;;;3.81;100.00;99955.78;5027037;28;20464;-65
2021/12/27 05:37:23;;;;;;;45.13;24.33;;;;;;;3.81;100.00;99956.63;5026439;28;20079;-65
2021/12/27 05:39:48;;;;;;;44.40;24.08;;;;;;;3.83;100.00;99959.13;5027216;28;20104;-65
2021/12/27 05:42:14;;;;;;;41.97;24.52;;;;;;;3.84;100.00;99955.34;5026572;28;20051;-65
2021/12/27 05:44:39;;;;;;;47.00;24.05;;;;;;;3.88;100.00;99951.19;5026395;28;20083;-65
2021/12/27 05:47:05;;;;;;;41.75;22.80;;;;;;;3.90;100.00;99955.38;5026087;28;20113;-65
2021/12/27 05:49:30;;;;;;;45.95;24.50;;;;;;;3.92;100.00;99963.31;5027147;28;20499;-65
2021/12/27 05:51:55;;;;;;;41.50;22.73;;;;;;;3.93;100.00;99953.28;5026564;28;20022;-65
2021/12/27 05:54:21;;;;;;;40.30;23.90;;;;;;;3.97;100.00;99955.38;5027083;28;20056;-65
2021/12/27 05:56:47;;;;;;;39.38;23.25;;;;;;;3.98;100.00;99959.75;5025271;28;20049;-65
2021/12/27 05:59:13;;;;;;;40.40;23.02;;;;;;;4.01;100.00;99961.22;5025602;28;20025;-65
2021/12/27 06:01:39;;;;;;;40.42;23.23;;;;;;;4.02;100.00;99957.44;5025421;28;20101;-66
2021/12/27 06:04:05;;;;;;;41.17;22.55;;;;;;;4.03;100.00;99964.56;5025386;28;20026;-66
2021/12/27 06:06:30;;;;;;;44.47;24.25;;;;;;;4.04;100.00;99964.34;5025960;28;20083;-65
2021/12/27 06:08:56;;;;;;;43.38;24.13;;;;;;;4.04;100.00;99964.34;5025345;28;20033;-65
2021/12/27 06:11:22;;;;;;;42.05;22.40;;;;;;;4.07;100.00;99966.63;5025382;28;20033;-65
2021/12/27 06:13:47;;;;;;;46.17;25.10;;;;;;;4.08;100.00;99965.59;5026711;28;20044;-65
2021/12/27 06:16:13;;;;;;;42.08;23.15;;;;;;;4.10;100.00;99968.91;5025108;28;20460;-65
2021/12/27 06:18:38;;;;;;;41.90;24.83;;;;;;;4.13;100.00;99963.06;5026510;28;20516;-65
2021/12/27 06:21:06;;;;;;;41.45;23.20;;;;;;;4.16;100.00;99968.09;5025053;28;20053;-65
2021/12/27 06:23:32;;;;;;;;;;;;;;;4.21;100.00;99966.59;5027059;28;20087;-65
2021/12/27 06:25:57;;;;;;;41.23;22.27;;;;;;;4.22;100.00;99960.97;5026721;28;19920;-65
2021/12/27 06:28:23;;;;;;;43.78;22.48;;;;;;;4.22;100.00;99954.72;5025556;28;20357;-65
2021/12/27 06:30:48;;;;;;;39.30;23.13;;;;;;;4.26;100.00;99958.66;5024717;28;20030;-66
2021/12/27 06:33:14;;;;;;;40.17;23.17;;;;;;;4.27;100.00;99957.63;5023987;28;20018;-65
2021/12/27 06:35:39;;;;;;;43.03;23.88;;;;;;;4.29;100.00;99950.94;5025496;28;20104;-65
2021/12/27 06:38:04;;;;;;;41.33;23.02;;;;;;;4.30;100.00;99949.88;5023980;28;20022;-65
2021/12/27 06:40:30;;;;;;;43.38;23.42;;;;;;;4.32;100.00;99955.94;5025563;28;20088;-65
2021/12/27 06:42:57;;;;;;;39.92;22.65;;;;;;;4.33;100.00;99957.63;5026011;28;20084;-65
2021/12/27 06:45:22;;;;;;;37.90;22.52;;;;;;;4.35;100.00;99951.97;5023850;28;20144;-66
2021/12/27 06:47:47;;;;;;;43.47;22.65;;;;;;;4.35;100.00;99936.47;5025345;28;20120;-65
2021/12/27 06:50:13;;;;;;;41.65;23.80;;;;;;;4.37;100.00;99942.56;5025868;28;20177;-65
2021/12/27 06:52:38;;;;;;;42.47;22.77;;;;;;;4.40;100.00;99949.44;5025399;28;20372;-66
2021/12/27 06:55:04;;;;;;;40.10;23.17;;;;;;;4.42;100.00;99941.94;5017752;28;20055;-66
2021/12/27 06:57:30;;;;;;;38.65;21.98;;;;;;;4.42;100.00;99944.63;5025870;28;20892;-65
2021/12/27 06:59:56;;;;;;;38.17;22.30;;;;;;;4.45;100.00;99940.66;5024683;28;20116;-66
2021/12/27 07:02:22;;;;;;;39.42;21.92;;;;;;;4.46;100.00;99926.88;5025560;28;20428;-65
2021/12/27 07:04:47;;;;;;;44.75;23.17;;;;;;;4.46;100.00;99935.03;5025287;28;20029;-65
2021/12/27 07:07:12;;;;;;;44.90;23.83;;;;;;;4.48;100.00;99941.06;5025343;28;20113;-65
2021/12/27 07:09:38;;;;;;;39.30;20.75;;;;;;;4.50;100.00;99930.78;5025748;28;20038;-65
2021/12/27 07:12:04;;;;;;;42.08;22.77;;;;;;;4.51;100.00;99929.78;5025084;28;20500;-67
2021/12/27 07:14:29;;;;;;;38.45;21.77;;;;;;;4.56;100.00;99920.94;5024681;28;20041;-66
2021/12/27 07:16:54;;;;;;;44.90;22.15;;;;;;;4.57;100.00;99920.75;5025236;28;20083;-66
2021/12/27 07:19:19;;;;;;;45.40;23.40;;;;;;;4.57;100.00;99922.63;5025089;28;20057;-66
2021/12/27 07:21:45;;;;;;;40.08;21.98;;;;;;;4.57;100.00;99918.03;5025202;28;20033;-66
2021/12/27 07:24:10;;;;;;;40.25;22.85;;;;;;;4.56;100.00;99915.50;5024876;28;20101;-66
2021/12/27 07:26:35;;;;;;;37.30;21.33;;;;;;;4.56;100.00;99912.78;5025098;28;20029;-66
2021/12/27 07:29:00;;;;;;;44.25;22.35;;;;;;;4.57;100.00;99912.59;5024631;28;20040;-66
2021/12/27 07:31:26;;;;;;;40.90;21.50;;;;;;;4.56;100.00;99905.50;5023150;28;20060;-66
2021/12/27 07:33:52;;;;;;;38.30;21.92;;;;;;;4.58;100.00;99911.53;5023994;28;20033;-67
2021/12/27 07:36:17;;;;;;;42.42;22.50;;;;;;;4.59;100.00;99910.50;5024086;28;20112;-66
2021/12/27 07:38:43;;;;;;;40.13;22.38;;;;;;;4.61;100.00;99908.41;5025031;28;20487;-66
2021/12/27 07:41:09;;;;;;;41.92;22.10;;;;;;;4.59;100.00;99898.78;5024338;28;20029;-66
2021/12/27 07:43:34;;;;;;;37.85;21.35;;;;;;;4.60;100.00;99908.59;5024578;28;20030;-66
2021/12/27 07:46:00;;;;;;;39.35;21.48;;;;;;;4.63;100.00;99911.72;5023604;28;20452;-66
2021/12/27 07:48:25;;;;;;;35.55;20.80;;;;;;;4.60;100.00;99920.31;5024141;28;20373;-66
2021/12/27 07:50:51;;;;;;;37.60;21.40;;;;;;;4.60;100.00;99914.88;5024155;28;20141;-66
2021/12/27 07:53:17;;;;;;;39.47;20.83;;;;;;;4.60;100.00;99912.16;5024528;28;20037;-66
2021/12/27 07:55:42;;;;;;;37.28;21.05;;;;;;;4.60;100.00;99908.59;5023815;28;20103;-66
2021/12/27 07:58:07;;;;;;;39.05;22.00;;;;;;;4.57;100.00;99909.03;5025056;28;20041;-65
2021/12/27 08:00:33;;;;;;;36.33;20.45;;;;;;;4.56;100.00;99905.50;5023419;28;20033;-66
2021/12/27 08:02:58;;;;;;;36.85;21.42;;;;;;;4.58;100.00;99914.25;5024819;28;20191;-66
2021/12/27 08:05:24;;;;;;;39.28;20.40;;;;;;;4.59;100.00;99913.19;5024429;28;20030;-66
2021/12/27 08:07:49;;;;;;;34.75;19.65;;;;;;;4.64;100.00;99926.16;5024756;28;20026;-66
2021/12/27 08:10:15;;;;;;;38.35;20.85;;;;;;;4.65;100.00;99922.38;5013375;28;20061;-66
2021/12/27 08:12:42;;;;;;;38.38;21.08;;;;;;;4.65;100.00;99920.50;5018484;28;20017;-65
2021/12/27 08:15:09;;;;;;;35.65;20.60;;;;;;;4.64;100.00;99921.56;5022716;28;20029;-66
2021/12/27 08:17:35;;;;;;;37.07;20.03;;;;;;;4.64;100.00;99924.28;5024451;28;20041;-66
2021/12/27 08:20:00;;;;;;;34.50;19.60;;;;;;;4.65;100.00;99925.09;5023868;28;20049;-66
2021/12/27 08:22:26;;;;;;;34.20;19.50;;;;;;;4.68;100.00;99932.84;5022314;28;20493;-66
2021/12/27 08:24:52;;;;;;;34.63;19.90;;;;;;;4.71;100.00;99929.69;5021735;28;20087;-67
2021/12/27 08:27:19;;;;;;;38.47;20.58;;;;;;;4.77;100.00;99934.28;5022594;28;20531;-66
2021/12/27 08:29:45;;;;;;;34.63;19.08;;;;;;;4.81;100.00;99921.06;5023340;28;20037;-66
2021/12/27 08:32:10;;;;;;;33.38;20.00;;;;;;;4.83;100.00;99929.88;5022914;28;20041;-66
2021/12/27 08:34:36;;;;;;;32.20;19.52;;;;;;;4.82;100.00;99931.75;5024783;28;20030;-66
2021/12/27 08:37:01;;;;;;;35.75;20.50;;;;;;;4.81;100.00;99931.94;5024268;28;20400;-65
2021/12/27 08:39:27;;;;;;;33.58;20.58;;;;;;;4.82;100.00;99925.47;5023884;28;20036;-66
2021/12/27 08:41:52;;;;;;;35.50;20.58;;;;;;;4.82;100.00;99933.63;5021779;28;20033;-66
2021/12/27 08:44:17;;;;;;;33.65;19.95;;;;;;;4.83;100.00;99921.69;5022794;28;20116;-66
2021/12/27 08:46:43;;;;;;;31.80;19.17;;;;;;;4.83;100.00;99921.69;5024193;28;20025;-66
2021/12/27 08:49:09;;;;;;;35.35;20.25;;;;;;;4.86;100.00;99908.47;5023229;28;20040;-66
2021/12/27 08:51:34;;;;;;;35.50;20.17;;;;;;;4.92;100.00;99904.09;5022888;28;20155;-66
2021/12/27 08:54:00;;;;;;;35.00;20.88;;;;;;;5.00;100.00;99914.69;5024235;28;20057;-67
2021/12/27 08:56:25;;;;;;;36.42;19.02;;;;;;;5.05;100.00;99904.00;5022500;28;20042;-67
2021/12/27 08:58:50;;;;;;;34.80;20.50;;;;;;;5.13;100.00;99902.91;5022984;28;20037;-66
2021/12/27 09:01:16;;;;;;;32.70;20.00;;;;;;;5.23;100.00;99891.56;5023285;28;20030;-66
2021/12/27 09:03:41;;;;;;;34.40;20.63;;;;;;;5.34;100.00;99890.84;5015244;28;20029;-67
2021/12/27 09:06:06;;;;;;;31.10;18.15;;;;;;;5.46;100.00;99880.91;5013271;28;20057;-67
2021/12/27 09:08:32;;;;;;;28.88;18.27;;;;;;;5.54;100.00;99867.03;5022871;28;20407;-67
2021/12/27 09:10:58;;;;;;;26.42;17.48;;;;;;;5.67;100.00;99866.06;5023565;28;20087;-66
2021/12/27 09:13:28;;;;;;;28.38;17.40;;;;;;;5.93;100.00;99865.88;5011786;28;20502;-65
2021/12/27 09:15:55;;;;;;;29.33;17.35;;;;;;;6.28;100.00;99861.72;5024005;28;20033;-66
2021/12/27 09:18:21;;;;;;;25.48;15.30;;;;;;;6.61;98.88;99864.06;5023420;28;20144;-66
2021/12/27 09:20:47;;;;;;;23.50;15.57;;;;;;;6.81;97.45;99866.56;5015543;28;20101;-66
2021/12/27 09:23:12;;;;;;;23.52;15.07;;;;;;;7.06;95.79;99861.78;5010863;28;20022;-66
2021/12/27 09:25:37;;;;;;;22.95;14.77;;;;;;;7.31;93.39;99879.94;5017926;28;20036;-66
2021/12/27 09:28:03;;;;;;;24.38;14.50;;;;;;;6.93;92.23;99879.19;5019965;28;20044;-65
2021/12/27 09:30:28;;;;;;;22.38;14.60;;;;;;;6.57;94.42;99895.59;5022469;28;20025;-66
2021/12/27 09:32:53;;;;;;;21.45;14.70;;;;;;;6.36;95.32;99892.25;5022775;28;20017;-66
2021/12/27 09:35:19;;;;;;;23.48;14.43;;;;;;;6.21;96.20;99895.34;5019140;28;20033;-66
2021/12/27 09:37:44;;;;;;;20.05;14.13;;;;;;;6.09;96.21;99905.34;5021669;28;20033;-66
2021/12/27 09:40:10;;;;;;;23.70;15.32;;;;;;;6.02;97.19;99901.84;5012480;28;20936;-66
2021/12/27 09:42:35;;;;;;;24.67;16.33;;;;;;;5.96;97.62;99898.13;5020821;28;20037;-66
2021/12/27 09:45:03;;;;;;;24.20;15.18;;;;;;;5.99;98.28;99891.41;5014563;28;20499;-66
2021/12/27 09:47:28;;;;;;;26.88;16.40;;;;;;;6.09;98.06;99894.44;5013717;28;20492;-68
2021/12/27 09:49:54;;;;;;;24.15;15.93;;;;;;;6.11;97.51;99894.22;5016475;28;20033;-68
2021/12/27 09:52:19;;;;;;;25.63;15.55;;;;;;;6.17;97.30;99879.66;5016955;28;20129;-66
2021/12/27 09:54:46;;;;;;;24.27;17.15;;;;;;;6.14;97.36;99878.25;5018194;28;20116;-66
2021/12/27 09:57:12;;;;;;;25.50;16.38;;;;;;;6.19;97.69;99872.94;5025383;28;20041;-66
2021/12/27 09:59:37;;;;;;;30.88;19.42;;;;;;;6.21;97.08;99870.00;5025618;28;20132;-68
2021/12/27 10:02:02;;;;;;;30.02;19.23;;;;;;;6.18;96.58;99865.84;5026568;28;20026;-66
2021/12/27 10:04:28;;;;;;;30.63;20.15;;;;;;;6.14;96.52;99867.34;5026921;28;20429;-66
2021/12/27 10:06:54;;;;;;;31.40;20.38;;;;;;;6.20;96.55;99863.69;5026165;28;20068;-66
2021/12/27 10:09:21;;;;;;;30.08;20.17;;;;;;;6.23;96.12;99856.94;5021411;28;20696;-66
2021/12/27 10:11:47;;;;;;;28.73;19.27;;;;;;;6.17;96.14;99857.88;5019997;28;20030;-66
2021/12/27 10:14:15;;;;;;;29.45;21.23;;;;;;;6.04;95.92;99847.94;5017568;28;20018;-66
2021/12/27 10:17:03;;;;;;;30.75;21.45;;;;;;;6.02;96.97;99849.22;5022456;28;20054;-67
2021/12/27 10:19:29;;;;;;;33.20;22.05;;;;;;;6.01;96.85;99832.03;5026375;28;20034;-66
2021/12/27 10:21:54;;;;;;;30.38;20.58;;;;;;;6.16;97.12;99824.31;5015151;28;20413;-66
2021/12/27 10:24:27;;;;;;;28.38;19.50;;;;;;;6.35;96.31;99822.44;5030287;28;20063;-66
2021/12/27 10:26:54;;;;;;;31.05;20.10;;;;;;;6.62;95.05;99817.47;5042040;28;20090;-66
2021/12/27 10:29:29;;;;;;;26.65;17.95;;;;;;;6.79;93.46;99812.19;5024075;28;20488;-65
2021/12/27 10:32:11;;;;;;;22.75;15.82;;;;;;;6.66;92.64;99815.13;5011972;28;20040;-66
2021/12/27 10:34:43;;;;;;;22.85;16.70;;;;;;;6.46;93.08;99829.84;5026873;28;20025;-66
2021/12/27 10:37:21;;;;;;;23.55;15.68;;;;;;;6.29;93.66;99833.41;5026030;28;20036;-65
2021/12/27 10:39:57;;;;;;;24.63;16.55;;;;;;;6.07;94.55;99841.19;5020653;28;20404;-65
2021/12/27 10:42:24;;;;;;;23.10;16.50;;;;;;;5.96;95.27;99834.59;5025785;28;20495;-65
2021/12/27 10:44:51;;;;;;;24.25;16.77;;;;;;;6.04;96.08;99830.75;5025538;28;20024;-66
2021/12/27 10:47:36;;;;;;;24.77;16.52;;;;;;;6.13;95.86;99832.09;5025532;28;20386;-66
2021/12/27 10:50:09;;;;;;;26.35;15.88;;;;;;;6.28;96.02;99827.09;5020616;28;20388;-66
2021/12/27 10:52:57;;;;;;;23.17;15.15;;;;;;;6.36;95.54;99825.97;5006363;28;20494;-65
2021/12/27 10:55:31;;;;;;;;;;;;;;;6.49;96.13;99817.66;5006037;28;20108;-66
2021/12/27 10:58:25;;;;;;;23.80;14.77;;;;;;;6.57;94.88;99824.66;5020804;28;19928;-66
2021/12/27 11:01:05;;;;;;;23.17;14.65;;;;;;;6.61;94.52;99821.25;5025984;28;20032;-66
2021/12/27 11:03:32;;;;;;;20.80;14.43;;;;;;;6.64;94.00;99814.50;5007039;28;20044;-66
2021/12/27 11:05:59;;;;;;;21.58;14.98;;;;;;;6.67;94.19;99819.50;5025349;28;20038;-69
2021/12/27 11:08:26;;;;;;;22.58;14.50;;;;;;;6.87;94.48;99814.59;5024215;28;20121;-66
2021/12/27 11:10:52;;;;;;;22.77;14.93;;;;;;;7.33;93.81;99812.22;5024607;28;20033;-65
2021/12/27 11:13:18;;;;;;;19.58;13.35;;;;;;;7.76;90.69;99812.75;5024432;28;20029;-65
2021/12/27 11:15:43;;;;;;;18.92;13.02;;;;;;;7.85;90.21;99809.66;5024282;28;20368;-65
2021/12/27 11:18:11;;;;;;;20.27;12.82;;;;;;;7.63;90.73;99818.44;5024317;28;20029;-65